Time;durP1;ratioP1;P1;durP2;ratioP2;P2;SDS_P1;SDS_P2;PMS_P1;PMS_P2;Temp;Humidity;BMP_temperature;BMP_pressure;BME280_temperature;BME280_humidity;BME280_pressure;Samples;Min_cycle;Max_cycle;Signal;HPM_P1;HPM_P2
2023/08/26 00:00:57;;;;;;;16.35;14.70;;;;;;;24.72;62.75;98512.19;5032797;28;20065;-91
2023/08/26 00:03:24;;;;;;;17.35;15.65;;;;;;;24.48;62.82;98505.19;5033385;28;20076;-91
2023/08/26 00:05:50;;;;;;;17.05;15.45;;;;;;;24.39;63.09;98495.97;5034149;28;20656;-93
2023/08/26 00:08:17;;;;;;;18.13;16.35;;;;;;;24.35;63.26;98504.53;5033791;28;20395;-92
2023/08/26 00:10:43;;;;;;;18.33;16.63;;;;;;;24.35;63.14;98501.81;5033679;28;20048;-92
2023/08/26 00:13:09;;;;;;;18.35;16.65;;;;;;;24.29;63.57;98502.34;5034035;28;20041;-91
2023/08/26 00:15:35;;;;;;;18.25;16.52;;;;;;;24.31;63.63;98512.13;5031571;28;20045;-92
2023/08/26 00:18:00;;;;;;;17.85;15.45;;;;;;;24.26;64.39;98514.34;5034741;28;20037;-92
2023/08/26 00:20:27;;;;;;;18.30;16.58;;;;;;;24.29;63.71;98515.94;5033034;28;20046;-91
2023/08/26 00:22:53;;;;;;;17.13;15.50;;;;;;;24.31;63.93;98516.66;5034700;28;20124;-91
2023/08/26 00:25:20;;;;;;;17.80;16.10;;;;;;;24.37;64.17;98508.84;5034354;28;20120;-92
2023/08/26 00:27:46;;;;;;;18.30;16.58;;;;;;;24.46;64.24;98512.59;5033866;28;20064;-92
2023/08/26 00:30:12;;;;;;;17.55;15.85;;;;;;;24.50;63.90;98511.38;5032808;28;20021;-90
2023/08/26 00:32:37;;;;;;;17.42;14.00;;;;;;;24.43;63.89;98503.88;5034665;28;20049;-91
2023/08/26 00:35:04;;;;;;;17.80;16.23;;;;;;;24.46;63.83;98507.16;5032342;28;20038;-90
2023/08/26 00:37:30;;;;;;;18.20;16.40;;;;;;;24.40;64.49;98515.88;5049882;28;20048;-91
2023/08/26 00:39:55;;;;;;;17.70;15.93;;;;;;;24.20;65.43;98498.59;5050712;28;20049;-93
2023/08/26 00:42:23;;;;;;;17.27;15.48;;;;;;;24.23;65.61;98511.06;5033966;28;20088;-93
2023/08/26 00:44:48;;;;;;;16.45;14.85;;;;;;;24.19;65.80;98514.03;5034113;28;20037;-93
2023/08/26 00:47:15;;;;;;;16.48;14.85;;;;;;;24.10;66.06;98506.69;5032561;28;20033;-93
2023/08/26 00:49:40;;;;;;;17.67;15.77;;;;;;;23.99;65.97;98494.03;5033876;28;20479;-93
2023/08/26 00:52:06;;;;;;;17.67;15.98;;;;;;;23.95;65.99;98489.88;5034333;28;20048;-91
2023/08/26 00:54:35;;;;;;;17.98;16.25;;;;;;;23.92;66.61;98494.69;5033923;28;20037;-93
2023/08/26 00:57:02;;;;;;;19.55;16.77;;;;;;;23.90;67.87;98499.41;5049407;28;20499;-92
2023/08/26 00:59:30;;;;;;;17.63;15.93;;;;;;;23.75;67.38;98488.00;5033807;28;20116;-93
2023/08/26 01:01:57;;;;;;;17.87;16.23;;;;;;;23.66;68.20;98496.91;5032266;28;20051;-92
2023/08/26 01:04:24;;;;;;;17.90;16.15;;;;;;;23.65;68.36;98501.47;5032255;28;20325;-95
2023/08/26 01:06:49;;;;;;;17.08;15.38;;;;;;;23.57;68.25;98496.72;5033733;28;20034;-91
2023/08/26 01:09:15;;;;;;;20.50;15.00;;;;;;;23.48;68.13;98475.78;5033814;28;20036;-94
2023/08/26 01:11:50;;;;;;;16.58;14.98;;;;;;;23.35;69.08;98475.94;5050175;28;20101;-92
2023/08/26 01:14:22;;;;;;;16.83;15.30;;;;;;;23.43;68.79;98486.16;5033002;28;20042;-93
2023/08/26 01:16:49;;;;;;;18.33;16.58;;;;;;;23.40;69.40;98499.13;5031593;28;20075;-93
2023/08/26 01:19:26;;;;;;;16.77;15.27;;;;;;;23.41;69.83;98495.44;5033001;28;20046;-95
2023/08/26 01:21:58;;;;;;;18.10;16.38;;;;;;;23.17;71.52;98493.78;5033261;28;20064;-93
2023/08/26 01:24:26;;;;;;;17.70;15.73;;;;;;;23.19;71.42;98509.94;5032692;28;20156;-93
2023/08/26 01:26:52;;;;;;;19.13;16.13;;;;;;;23.11;71.83;98505.13;5032107;28;20037;-91
2023/08/26 01:29:18;;;;;;;17.98;16.30;;;;;;;23.04;72.48;98490.38;5031434;28;20053;-94
2023/08/26 01:31:48;;;;;;;18.75;16.98;;;;;;;22.99;72.28;98493.44;5032358;28;20041;-92
2023/08/26 01:34:20;;;;;;;19.08;17.27;;;;;;;22.94;73.67;98493.81;5030748;28;20495;-92
2023/08/26 01:36:47;;;;;;;18.58;16.92;;;;;;;23.00;72.85;98491.56;5032957;28;20037;-92
2023/08/26 01:39:15;;;;;;;19.38;17.55;;;;;;;22.96;73.54;98493.66;5032671;28;20557;-92
2023/08/26 01:41:48;;;;;;;20.33;17.40;;;;;;;22.88;73.40;98496.13;5033193;28;20111;-93
2023/08/26 01:44:14;;;;;;;17.83;16.05;;;;;;;22.81;73.62;98473.25;5032835;28;20454;-93
2023/08/26 01:46:40;;;;;;;19.25;17.02;;;;;;;22.89;73.54;98478.91;5031260;28;20123;-93
2023/08/26 01:49:06;;;;;;;18.77;16.98;;;;;;;22.85;73.35;98477.44;5033006;28;20045;-92
2023/08/26 01:51:32;;;;;;;18.85;17.23;;;;;;;22.74;73.61;98462.91;5031632;28;20442;-91
2023/08/26 01:53:58;;;;;;;18.23;16.67;;;;;;;22.74;74.14;98471.03;5032747;28;20041;-93
2023/08/26 01:56:24;;;;;;;18.25;16.45;;;;;;;22.82;74.24;98480.41;5032889;28;20491;-92
2023/08/26 01:58:51;;;;;;;18.10;16.30;;;;;;;22.73;74.38;98469.31;5032417;28;20155;-93
2023/08/26 02:01:17;;;;;;;18.33;16.63;;;;;;;22.61;75.30;98459.47;5031267;28;20037;-93
2023/08/26 02:03:43;;;;;;;19.00;17.10;;;;;;;22.65;75.75;98460.94;5032490;28;20049;-92
2023/08/26 02:06:09;;;;;;;19.92;17.67;;;;;;;22.65;75.21;98460.09;5033093;28;20037;-91
2023/08/26 02:08:35;;;;;;;19.92;17.85;;;;;;;22.54;76.52;98466.38;5032405;28;20045;-92
2023/08/26 02:11:00;;;;;;;20.70;18.65;;;;;;;22.52;76.16;98460.22;5031356;28;20042;-92
2023/08/26 02:13:26;;;;;;;20.10;18.08;;;;;;;22.43;77.82;98458.28;5031222;28;20041;-94
2023/08/26 02:15:54;;;;;;;20.15;18.17;;;;;;;22.32;77.38;98446.44;5030808;28;20041;-94
2023/08/26 02:18:20;;;;;;;19.65;17.85;;;;;;;22.34;77.41;98466.16;5032354;28;20049;-91
2023/08/26 02:20:48;;;;;;;19.90;17.95;;;;;;;22.40;77.00;98466.63;5030477;28;20499;-92
2023/08/26 02:23:14;;;;;;;20.50;18.10;;;;;;;22.25;76.95;98438.91;5048774;28;20052;-93
2023/08/26 02:25:40;;;;;;;19.00;17.20;;;;;;;22.34;77.16;98455.31;5048303;28;20128;-92
2023/08/26 02:28:06;;;;;;;20.58;18.58;;;;;;;22.26;77.08;98437.94;5032033;28;20132;-91
2023/08/26 02:30:32;;;;;;;20.85;18.83;;;;;;;22.34;77.36;98454.47;5030313;28;20099;-93
2023/08/26 02:32:59;;;;;;;21.08;18.92;;;;;;;22.31;77.37;98452.84;5048193;28;20068;-92
2023/08/26 02:35:24;;;;;;;20.85;18.98;;;;;;;22.20;77.86;98439.25;5031388;28;20045;-93
2023/08/26 02:37:50;;;;;;;21.45;19.33;;;;;;;22.17;78.37;98446.78;5031038;28;20037;-94
2023/08/26 02:40:16;;;;;;;20.48;18.40;;;;;;;22.15;78.55;98457.75;5036253;28;20053;-92
2023/08/26 02:42:42;;;;;;;21.38;19.27;;;;;;;22.19;78.53;98467.34;5036041;28;20376;-92
2023/08/26 02:45:08;;;;;;;23.95;21.23;;;;;;;22.13;78.84;98454.28;5034466;28;20044;-93
2023/08/26 02:47:34;;;;;;;21.23;18.95;;;;;;;22.04;80.63;98461.28;5036225;28;20487;-91
2023/08/26 02:50:01;;;;;;;21.27;19.08;;;;;;;22.02;80.19;98448.88;5035542;28;20037;-92
2023/08/26 02:52:27;;;;;;;21.23;18.95;;;;;;;21.95;80.84;98451.19;5051754;28;20052;-93
2023/08/26 02:54:53;;;;;;;22.20;20.20;;;;;;;21.89;80.77;98449.81;5035133;28;20034;-91
2023/08/26 02:57:19;;;;;;;21.55;19.35;;;;;;;21.84;80.62;98441.22;5036164;28;20569;-92
2023/08/26 02:59:45;;;;;;;22.73;20.60;;;;;;;21.84;82.63;98451.16;5036187;28;20088;-92
2023/08/26 03:02:11;;;;;;;22.25;19.85;;;;;;;21.77;82.67;98453.47;5051078;28;20087;-93
2023/08/26 03:04:37;;;;;;;22.20;20.08;;;;;;;21.58;83.55;98427.03;5034542;28;20522;-92
2023/08/26 03:07:04;;;;;;;25.67;22.88;;;;;;;21.69;83.87;98445.97;5035623;28;20053;-91
2023/08/26 03:09:30;;;;;;;22.88;20.67;;;;;;;21.56;84.35;98441.63;5035564;28;20037;-91
2023/08/26 03:11:57;;;;;;;23.73;21.55;;;;;;;21.48;85.48;98434.97;5035533;28;20041;-92
2023/08/26 03:14:23;;;;;;;23.70;21.42;;;;;;;21.43;85.30;98422.81;5035336;28;20144;-90
2023/08/26 03:16:49;;;;;;;25.27;22.55;;;;;;;21.39;86.14;98429.38;5034367;28;20543;-90
2023/08/26 03:19:15;;;;;;;25.63;23.08;;;;;;;21.29;86.10;98408.44;5036189;28;20064;-93
2023/08/26 03:21:41;;;;;;;24.15;21.75;;;;;;;21.34;85.91;98427.03;5051595;28;20419;-92
2023/08/26 03:24:09;;;;;;;26.02;23.42;;;;;;;21.37;86.54;98432.19;5031453;28;20049;-93
2023/08/26 03:26:35;;;;;;;26.38;23.73;;;;;;;21.34;87.38;98438.72;5035285;28;20040;-92
2023/08/26 03:29:02;;;;;;;25.38;22.60;;;;;;;21.41;86.68;98435.53;5034820;28;20034;-92
2023/08/26 03:31:28;;;;;;;26.38;23.85;;;;;;;21.39;87.06;98432.94;5051034;28;20065;-91
2023/08/26 03:33:53;;;;;;;25.05;22.42;;;;;;;21.37;87.38;98436.75;5032539;28;20119;-92
2023/08/26 03:36:19;;;;;;;25.42;23.00;;;;;;;21.31;87.27;98432.66;5052344;28;20038;-91
2023/08/26 03:38:45;;;;;;;25.77;23.27;;;;;;;21.29;87.45;98437.34;5034699;28;20038;-92
2023/08/26 03:41:13;;;;;;;27.02;24.42;;;;;;;21.25;88.00;98422.31;5034212;28;20065;-91
2023/08/26 03:43:38;;;;;;;26.45;23.73;;;;;;;21.23;88.34;98433.28;5034789;28;20042;-91
2023/08/26 03:46:05;;;;;;;26.67;24.10;;;;;;;21.22;88.97;98427.97;5032520;28;20103;-93
2023/08/26 03:48:30;;;;;;;28.55;25.67;;;;;;;21.02;89.88;98419.53;5034898;28;20038;-93
2023/08/26 03:50:57;;;;;;;29.05;26.25;;;;;;;21.01;92.55;98425.91;5034710;28;20112;-91
2023/08/26 03:53:23;;;;;;;31.83;28.70;;;;;;;21.00;93.23;98434.16;5034767;28;20041;-94
2023/08/26 03:55:49;;;;;;;33.58;30.30;;;;;;;20.98;93.78;98431.56;5033386;28;20047;-93
2023/08/26 03:58:16;;;;;;;34.65;30.90;;;;;;;21.03;93.56;98429.34;5051458;28;20037;-91
2023/08/26 04:00:42;;;;;;;36.45;32.92;;;;;;;20.96;94.17;98430.81;5032938;28;20554;-93
2023/08/26 04:03:09;;;;;;;35.95;32.88;;;;;;;20.91;94.43;98419.47;5036870;28;20064;-92
2023/08/26 04:05:35;;;;;;;1509.75;758.95;;;;;;;20.95;95.33;98439.91;5034717;28;20492;-93
2023/08/26 04:08:00;;;;;;;1999.90;999.90;;;;;;;20.93;95.31;98431.03;5034426;28;20032;-91
2023/08/26 04:10:26;;;;;;;1999.90;999.90;;;;;;;20.93;94.92;98433.75;5051168;28;20056;-91
2023/08/26 04:12:52;;;;;;;1999.90;999.90;;;;;;;20.95;95.03;98439.91;5033987;28;20469;-90
2023/08/26 04:15:20;;;;;;;1999.90;999.90;;;;;;;21.00;94.88;98453.06;5034544;28;20128;-92
2023/08/26 04:17:45;;;;;;;1999.90;999.90;;;;;;;21.00;94.80;98453.94;5034297;28;20057;-93
2023/08/26 04:20:11;;;;;;;1999.90;999.90;;;;;;;20.88;95.71;98436.78;5034547;28;20112;-92
2023/08/26 04:22:38;;;;;;;1999.90;999.90;;;;;;;20.97;96.41;98466.78;5034683;28;20046;-93
2023/08/26 04:25:05;;;;;;;1999.90;999.90;;;;;;;20.86;96.33;98454.06;5050656;28;20148;-92
2023/08/26 04:27:33;;;;;;;1999.90;999.90;;;;;;;20.84;96.61;98458.72;5033902;28;20087;-92
2023/08/26 04:29:59;;;;;;;1999.90;999.90;;;;;;;20.89;96.33;98467.38;5034040;28;20092;-92
2023/08/26 04:32:27;;;;;;;1999.90;999.90;;;;;;;20.82;95.78;98457.97;5031611;28;21809;-91
2023/08/26 04:34:52;;;;;;;1999.90;999.90;;;;;;;20.94;96.68;98473.28;5032668;28;20060;-91
2023/08/26 04:37:20;;;;;;;1999.90;999.90;;;;;;;20.92;97.11;98476.09;5034536;28;20046;-90
2023/08/26 04:39:46;;;;;;;1999.90;999.90;;;;;;;20.83;97.40;98462.44;5033750;28;20049;-91
2023/08/26 04:42:12;;;;;;;1999.90;999.90;;;;;;;20.87;96.36;98475.59;5033992;28;20037;-93
2023/08/26 04:44:38;;;;;;;1999.90;999.90;;;;;;;20.82;97.57;98464.28;5033594;28;20042;-92
2023/08/26 04:47:04;;;;;;;1999.90;999.90;;;;;;;20.78;98.55;98467.31;5049131;28;20048;-90
2023/08/26 04:49:32;;;;;;;1999.90;999.90;;;;;;;20.63;99.73;98456.66;5034205;28;20030;-91
2023/08/26 04:51:59;;;;;;;1999.90;999.90;;;;;;;20.75;100.00;98483.75;5033069;28;20046;-91
2023/08/26 04:54:25;;;;;;;1999.90;999.90;;;;;;;20.72;100.00;98469.47;5048696;28;20049;-90
2023/08/26 04:56:50;;;;;;;1999.90;999.90;;;;;;;20.78;100.00;98475.44;5032793;28;20037;-93
2023/08/26 04:59:17;;;;;;;1999.90;999.90;;;;;;;20.81;100.00;98475.19;5033687;28;20037;-90
2023/08/26 05:01:42;;;;;;;1999.90;999.90;;;;;;;20.81;100.00;98469.78;5031906;28;20101;-90
2023/08/26 05:04:08;;;;;;;1999.90;999.90;;;;;;;20.84;100.00;98466.84;5033353;28;20542;-90
2023/08/26 05:06:36;;;;;;;1999.90;999.90;;;;;;;20.92;100.00;98469.84;5033756;28;20034;-91
2023/08/26 05:09:03;;;;;;;1999.90;999.90;;;;;;;20.97;100.00;98477.59;5033613;28;20118;-91
2023/08/26 05:11:29;;;;;;;1999.90;999.90;;;;;;;20.99;100.00;98483.75;5033717;28;20041;-91
2023/08/26 05:13:55;;;;;;;1999.90;999.90;;;;;;;20.94;100.00;98465.19;5033393;28;20076;-93
2023/08/26 05:16:21;;;;;;;1999.90;999.90;;;;;;;21.02;100.00;98470.91;5031814;28;20042;-93
2023/08/26 05:18:47;;;;;;;1999.90;999.90;;;;;;;21.02;100.00;98470.03;5033229;28;20503;-93
2023/08/26 05:21:12;;;;;;;1999.90;999.90;;;;;;;21.08;100.00;98475.00;5033929;28;20048;-91
2023/08/26 05:23:39;;;;;;;1999.90;999.90;;;;;;;21.07;100.00;98474.09;5033568;28;20045;-92
2023/08/26 05:26:05;;;;;;;1999.90;999.90;;;;;;;21.04;100.00;98473.50;5032066;28;20041;-93
2023/08/26 05:28:31;;;;;;;1999.90;999.90;;;;;;;21.09;100.00;98472.16;5033447;28;20069;-93
2023/08/26 05:30:57;;;;;;;1999.90;999.90;;;;;;;21.10;100.00;98467.59;5032196;28;20052;-93
2023/08/26 05:33:23;;;;;;;1999.90;999.90;;;;;;;21.15;100.00;98454.63;5033412;28;20136;-92
2023/08/26 05:35:48;;;;;;;1999.90;999.90;;;;;;;21.37;100.00;98480.88;5032638;28;20038;-92
2023/08/26 05:38:15;;;;;;;1999.90;999.90;;;;;;;21.42;100.00;98475.16;5032248;28;20037;-94
2023/08/26 05:40:42;;;;;;;1999.90;999.90;;;;;;;21.57;100.00;98481.25;5032877;28;20084;-92
2023/08/26 05:43:08;;;;;;;1999.90;999.90;;;;;;;21.80;100.00;98479.47;5033247;28;20049;-93
2023/08/26 05:45:34;;;;;;;1999.90;999.90;;;;;;;22.04;100.00;98501.06;5030241;28;20124;-93
2023/08/26 05:48:00;;;;;;;1999.90;999.90;;;;;;;22.12;98.83;98487.75;5033518;28;20051;-92
2023/08/26 05:50:26;;;;;;;1999.90;999.90;;;;;;;22.18;96.66;98476.44;5033787;28;20199;-93
2023/08/26 05:52:52;;;;;;;1999.90;999.90;;;;;;;22.40;93.93;98497.28;5033577;28;20103;-93
2023/08/26 05:55:18;;;;;;;1999.90;999.90;;;;;;;22.53;92.58;98497.16;5032938;28;20397;-93
2023/08/26 05:57:45;;;;;;;1999.90;999.90;;;;;;;22.67;94.84;98504.19;5030034;28;20396;-91
2023/08/26 06:00:13;;;;;;;1999.90;999.90;;;;;;;22.82;95.69;98508.38;5030699;28;20492;-92
2023/08/26 06:02:38;;;;;;;1999.90;999.90;;;;;;;22.92;94.68;98486.78;5033112;28;20037;-92
2023/08/26 06:05:05;;;;;;;1999.90;999.90;;;;;;;23.12;88.68;98491.47;5033308;28;20136;-93
2023/08/26 06:07:31;;;;;;;1999.90;999.90;;;;;;;23.36;85.61;98503.97;5033565;28;20034;-93
2023/08/26 06:09:57;;;;;;;1999.90;999.90;;;;;;;23.55;85.33;98496.00;5031951;28;20048;-93
2023/08/26 06:12:22;;;;;;;1999.90;999.90;;;;;;;23.70;82.60;98488.41;5033515;28;20048;-92
2023/08/26 06:14:50;;;;;;;1999.90;999.90;;;;;;;23.85;81.08;98482.66;5049047;28;20047;-94
2023/08/26 06:17:15;;;;;;;1999.90;999.90;;;;;;;24.01;79.36;98488.50;5030918;28;20069;-93
2023/08/26 06:19:41;;;;;;;1999.90;999.90;;;;;;;24.14;79.50;98496.44;5034195;28;20072;-92
2023/08/26 06:22:07;;;;;;;1999.90;999.90;;;;;;;24.36;77.50;98496.25;5032871;28;20152;-93
2023/08/26 06:24:34;;;;;;;1999.90;999.90;;;;;;;24.43;77.38;98498.44;5032851;28;20033;-94
2023/08/26 06:27:00;;;;;;;1999.90;999.90;;;;;;;24.56;77.08;98501.81;5030755;28;20046;-93
2023/08/26 06:29:26;;;;;;;1999.90;999.90;;;;;;;24.74;74.33;98508.31;5047949;28;20514;-94
2023/08/26 06:31:53;;;;;;;1999.90;999.90;;;;;;;24.89;73.35;98505.22;5032244;28;20041;-92
2023/08/26 06:34:19;;;;;;;1999.90;999.90;;;;;;;24.99;71.53;98496.09;5033571;28;20033;-93
2023/08/26 06:36:46;;;;;;;1999.90;999.90;;;;;;;25.13;70.63;98505.69;5033290;28;20450;-92
2023/08/26 06:39:12;;;;;;;1999.90;999.90;;;;;;;25.33;69.81;98503.03;5032062;28;20504;-93
2023/08/26 06:41:37;;;;;;;1999.90;999.90;;;;;;;25.44;69.17;98500.22;5032940;28;20454;-94
2023/08/26 06:44:04;;;;;;;1999.90;999.90;;;;;;;25.61;67.65;98501.34;5032301;28;20132;-94
2023/08/26 06:46:30;;;;;;;1999.90;999.90;;;;;;;25.64;67.15;98490.19;5031064;28;20037;-94
2023/08/26 06:48:58;;;;;;;1999.90;999.90;;;;;;;25.83;66.00;98494.75;5034907;28;20040;-94
2023/08/26 06:51:24;;;;;;;;;;;;;;;26.01;65.98;98516.69;5034134;28;20480;-94
2023/08/26 06:53:50;;;;;;;1999.90;999.90;;;;;;;26.01;64.66;98497.63;5036248;28;19920;-95
2023/08/26 06:56:16;;;;;;;1999.90;999.90;;;;;;;26.32;64.13;98514.63;5035100;28;20363;-94
2023/08/26 06:58:41;;;;;;;1999.90;999.90;;;;;;;26.34;63.87;98509.03;5035128;28;20038;-95
2023/08/26 07:01:07;;;;;;;1999.90;999.90;;;;;;;26.43;63.23;98511.69;5037101;28;20053;-94
2023/08/26 07:03:33;;;;;;;1999.90;999.90;;;;;;;26.61;62.61;98517.28;5036838;28;20041;-95
2023/08/26 07:06:01;;;;;;;1999.90;999.90;;;;;;;26.61;61.96;98491.91;5036653;28;20045;-95
2023/08/26 07:08:27;;;;;;;1999.90;999.90;;;;;;;26.84;61.27;98520.47;5036163;28;20503;-95
2023/08/26 07:10:52;;;;;;;1999.90;999.90;;;;;;;26.86;60.30;98508.56;5036224;28;20072;-95
2023/08/26 07:13:18;;;;;;;1999.90;999.90;;;;;;;27.04;60.28;98515.78;5036025;28;20072;-94
2023/08/26 07:15:44;;;;;;;1999.90;999.90;;;;;;;27.03;59.01;98497.69;5037129;28;20103;-96
2023/08/26 07:18:10;;;;;;;1999.90;999.90;;;;;;;27.12;59.33;98506.81;5036286;28;20084;-95
2023/08/26 07:20:38;;;;;;;1999.90;999.90;;;;;;;27.24;57.73;98522.03;5038212;28;20044;-93
2023/08/26 07:23:05;;;;;;;1999.90;999.90;;;;;;;27.40;58.05;98513.13;5037206;28;20071;-95
2023/08/26 07:25:31;;;;;;;1999.90;999.90;;;;;;;27.46;57.52;98498.03;5039213;28;20052;-94
2023/08/26 07:27:57;;;;;;;1999.90;999.90;;;;;;;27.63;56.74;98505.34;5040635;28;20046;-94
2023/08/26 07:30:26;;;;;;;1999.90;999.90;;;;;;;27.72;56.07;98498.09;5038263;28;20136;-93
2023/08/26 07:32:52;;;;;;;1999.90;999.90;;;;;;;27.89;55.80;98506.44;5039143;28;20068;-93
2023/08/26 07:35:17;;;;;;;1999.90;999.90;;;;;;;27.96;55.46;98500.19;5038365;28;20037;-94
2023/08/26 07:37:43;;;;;;;1999.90;999.90;;;;;;;28.21;55.36;98511.31;5037406;28;20128;-93
2023/08/26 07:40:14;;;;;;;1999.90;999.90;;;;;;;28.34;54.39;98517.19;5035922;28;20372;-93
2023/08/26 07:42:41;;;;;;;1999.90;999.90;;;;;;;28.42;54.35;98521.88;5033981;28;20076;-92
2023/08/26 07:45:07;;;;;;;1999.90;999.90;;;;;;;28.36;53.43;98517.03;5036586;28;20033;-93
2023/08/26 07:47:33;;;;;;;1999.90;999.90;;;;;;;28.33;53.54;98514.66;5036099;28;20565;-94
2023/08/26 07:49:59;;;;;;;1999.90;999.90;;;;;;;28.45;53.22;98506.00;5041529;28;20037;-92
2023/08/26 07:52:25;;;;;;;1999.90;999.90;;;;;;;28.58;53.46;98504.72;5036391;28;20038;-93
2023/08/26 07:54:51;;;;;;;1999.90;999.90;;;;;;;28.58;52.68;98510.19;5036815;28;20045;-94
2023/08/26 07:57:18;;;;;;;1999.90;999.90;;;;;;;28.76;52.88;98508.25;5053194;28;20396;-94
2023/08/26 07:59:44;;;;;;;1999.90;999.90;;;;;;;28.96;52.43;98508.84;5036681;28;20037;-93
2023/08/26 08:02:10;;;;;;;1999.90;999.90;;;;;;;29.07;51.83;98511.28;5035606;28;20042;-92
2023/08/26 08:04:35;;;;;;;1999.90;999.90;;;;;;;29.15;51.47;98515.97;5052753;28;20120;-93
2023/08/26 08:07:01;;;;;;;1999.90;999.90;;;;;;;29.22;50.78;98507.94;5029425;28;20042;-93
2023/08/26 08:09:27;;;;;;;1999.90;999.90;;;;;;;29.17;49.50;98505.72;5036185;28;20037;-93
2023/08/26 08:11:53;;;;;;;1999.90;999.90;;;;;;;29.10;49.12;98509.25;5037325;28;20380;-92
2023/08/26 08:14:20;;;;;;;1999.90;999.90;;;;;;;29.08;50.28;98501.19;5035111;28;20098;-95
2023/08/26 08:16:46;;;;;;;1999.90;999.90;;;;;;;29.19;50.51;98502.78;5029667;28;20068;-95
2023/08/26 08:19:12;;;;;;;1999.90;999.90;;;;;;;29.28;48.23;98501.81;5036210;28;20069;-95
2023/08/26 08:21:38;;;;;;;34.95;31.35;;;;;;;29.44;48.27;98511.94;5033761;28;20527;-94
2023/08/26 08:24:04;;;;;;;33.75;30.50;;;;;;;29.44;47.32;98490.03;5035834;28;20055;-92
2023/08/26 08:26:33;;;;;;;33.28;29.98;;;;;;;29.61;46.99;98502.72;5036459;28;20045;-94
2023/08/26 08:28:59;;;;;;;31.80;28.67;;;;;;;29.61;48.24;98501.88;5036374;28;20029;-94
2023/08/26 08:31:27;;;;;;;32.53;29.05;;;;;;;29.65;47.46;98479.44;5033251;28;20044;-93
2023/08/26 08:33:52;;;;;;;32.13;29.23;;;;;;;29.79;48.22;98497.09;5035670;28;20099;-93
2023/08/26 08:36:18;;;;;;;33.20;29.92;;;;;;;29.66;47.53;98489.34;5036048;28;20286;-93
2023/08/26 08:38:44;;;;;;;33.10;28.95;;;;;;;29.68;46.85;98479.06;5035883;28;20129;-95
2023/08/26 08:41:10;;;;;;;31.58;28.38;;;;;;;29.88;46.42;98476.03;5049736;28;20045;-96
2023/08/26 08:43:37;;;;;;;34.50;28.33;;;;;;;29.65;45.82;98471.22;5040679;28;20044;-95
2023/08/26 08:46:04;;;;;;;28.70;25.90;;;;;;;29.89;46.35;98496.94;5027975;28;20041;-95
2023/08/26 08:48:33;;;;;;;30.52;27.42;;;;;;;30.04;46.54;98497.97;5039375;28;20048;-94
2023/08/26 08:51:00;;;;;;;29.77;26.88;;;;;;;30.25;45.12;98502.03;5036642;28;20044;-92
2023/08/26 08:53:31;;;;;;;30.42;27.42;;;;;;;30.47;44.19;98476.66;5036575;28;20037;-94
2023/08/26 08:55:57;;;;;;;30.98;27.77;;;;;;;30.68;43.00;98483.44;5034146;28;20050;-94
2023/08/26 08:58:24;;;;;;;30.20;27.25;;;;;;;30.93;41.20;98483.41;5034010;28;20041;-92
2023/08/26 09:00:51;;;;;;;30.02;27.05;;;;;;;31.13;40.72;98484.66;5035863;28;20048;-92
2023/08/26 09:03:18;;;;;;;29.35;26.00;;;;;;;31.30;40.99;98488.19;5034609;28;20096;-93
2023/08/26 09:05:45;;;;;;;29.15;26.25;;;;;;;31.39;39.74;98469.75;5038159;28;20048;-95
2023/08/26 09:08:16;;;;;;;29.83;26.80;;;;;;;31.46;39.97;98473.50;5037209;28;20475;-92
2023/08/26 09:10:45;;;;;;;29.88;26.55;;;;;;;31.35;40.19;98465.66;5050751;28;20128;-96
2023/08/26 09:13:11;;;;;;;29.90;26.92;;;;;;;31.36;40.58;98459.09;5036999;28;20053;-95
2023/08/26 09:15:38;;;;;;;28.70;25.92;;;;;;;31.56;40.13;98460.38;5031819;28;20049;-94
2023/08/26 09:18:10;;;;;;;30.77;27.58;;;;;;;31.60;39.03;98458.97;5035087;28;20038;-92
2023/08/26 09:20:38;;;;;;;28.77;26.10;;;;;;;31.40;39.42;98463.19;5030434;28;20040;-95
2023/08/26 09:23:05;;;;;;;;;;;;;;;31.54;38.14;98476.19;5035274;28;20040;-93
2023/08/26 09:25:31;;;;;;;27.80;25.30;;;;;;;31.33;39.07;98463.91;5036249;28;20445;-94
2023/08/26 09:27:58;;;;;;;29.92;26.67;;;;;;;31.32;40.25;98475.97;5053091;28;20069;-94
2023/08/26 09:30:25;;;;;;;28.83;26.20;;;;;;;31.52;39.31;98472.78;5035949;28;20061;-95
2023/08/26 09:32:52;;;;;;;28.45;25.83;;;;;;;31.28;39.93;98452.63;5035381;28;20049;-96
2023/08/26 09:35:18;;;;;;;28.60;25.70;;;;;;;31.55;39.06;98449.56;5036333;28;20491;-94
2023/08/26 09:37:46;;;;;;;29.30;26.15;;;;;;;31.81;38.81;98465.66;5035597;28;20037;-94
2023/08/26 09:40:14;;;;;;;27.23;24.40;;;;;;;31.68;38.13;98471.78;5033213;28;20041;-93
2023/08/26 09:42:41;;;;;;;29.27;26.33;;;;;;;31.97;37.44;98471.03;5049128;28;20060;-92
2023/08/26 09:45:07;;;;;;;30.92;26.63;;;;;;;32.04;37.02;98461.03;5032507;28;20057;-91
2023/08/26 09:47:36;;;;;;;28.35;25.48;;;;;;;32.06;35.88;98455.34;5030155;28;20037;-92
2023/08/26 09:50:02;;;;;;;26.98;24.35;;;;;;;31.61;36.93;98455.19;5026748;28;20040;-93
2023/08/26 09:52:28;;;;;;;27.52;25.08;;;;;;;32.01;36.12;98464.16;5029395;28;20049;-94
2023/08/26 09:54:55;;;;;;;28.38;25.38;;;;;;;32.16;35.99;98449.56;5032028;28;20050;-93
2023/08/26 09:57:23;;;;;;;27.40;25.02;;;;;;;32.45;35.89;98454.25;5029691;28;20068;-93
2023/08/26 09:59:49;;;;;;;28.67;26.08;;;;;;;32.60;34.82;98452.38;5031994;28;20052;-92
2023/08/26 10:02:21;;;;;;;27.30;25.10;;;;;;;32.79;35.33;98447.31;5033806;28;20041;-95
2023/08/26 10:04:51;;;;;;;27.15;24.63;;;;;;;32.94;34.57;98445.41;5030124;28;20052;-93
2023/08/26 10:07:17;;;;;;;29.10;26.48;;;;;;;33.04;34.47;98451.47;5032798;28;20084;-93
2023/08/26 10:09:50;;;;;;;28.83;26.17;;;;;;;33.05;34.88;98460.56;5032725;28;20045;-93
2023/08/26 10:12:19;;;;;;;28.73;26.02;;;;;;;32.53;34.13;98444.03;5031588;28;20096;-92
2023/08/26 10:14:50;;;;;;;28.88;26.48;;;;;;;32.46;34.15;98445.78;5028528;28;20507;-93
2023/08/26 10:17:20;;;;;;;27.30;24.95;;;;;;;32.85;34.02;98446.56;5032272;28;20038;-93
2023/08/26 10:19:46;;;;;;;27.10;24.65;;;;;;;32.88;33.98;98437.94;5032366;28;20590;-94
2023/08/26 10:22:12;;;;;;;30.92;28.30;;;;;;;33.01;32.59;98431.69;5035144;28;20132;-93
2023/08/26 10:24:39;;;;;;;28.17;25.92;;;;;;;32.91;32.18;98432.88;5047502;28;20503;-94
2023/08/26 10:27:07;;;;;;;28.88;26.55;;;;;;;33.19;32.30;98434.94;5030174;28;20125;-94
2023/08/26 10:29:35;;;;;;;29.08;26.67;;;;;;;33.22;31.21;98420.75;5032804;28;20505;-94
2023/08/26 10:32:18;;;;;;;28.42;26.33;;;;;;;33.37;31.02;98437.22;5032558;28;20044;-93
2023/08/26 10:34:54;;;;;;;30.77;28.45;;;;;;;33.46;30.27;98435.19;5032446;28;20052;-94
2023/08/26 10:37:23;;;;;;;32.28;29.70;;;;;;;33.56;30.33;98425.56;5032531;28;20037;-92
2023/08/26 10:39:49;;;;;;;30.88;28.33;;;;;;;33.38;29.80;98414.16;5032421;28;20099;-94
2023/08/26 10:42:16;;;;;;;30.48;27.83;;;;;;;33.57;30.46;98409.84;5030031;28;20038;-93
2023/08/26 10:44:48;;;;;;;32.13;29.50;;;;;;;33.61;29.41;98407.59;5033791;28;20056;-94
2023/08/26 10:50:17;;;;;;;30.33;27.92;;;;;;;33.70;29.66;98425.69;5094419;27;20397;-95
2023/08/26 10:52:43;;;;;;;35.22;32.72;;;;;;;33.59;28.46;98407.78;5071910;28;20056;-93
2023/08/26 10:55:12;;;;;;;31.40;28.95;;;;;;;33.37;29.59;98414.34;5074789;28;20040;-93
2023/08/26 10:57:57;;;;;;;29.77;27.48;;;;;;;33.44;30.71;98404.22;5087576;28;20028;-92
2023/08/26 11:00:23;;;;;;;32.22;29.63;;;;;;;33.54;29.29;98410.25;5070452;28;20041;-92
2023/08/26 11:02:49;;;;;;;29.67;27.27;;;;;;;33.63;29.85;98414.63;5067446;28;20063;-92
2023/08/26 11:05:16;;;;;;;28.17;26.08;;;;;;;33.56;29.29;98397.97;5072234;28;20045;-91
2023/08/26 11:07:43;;;;;;;30.63;28.33;;;;;;;33.67;28.77;98402.16;5094677;28;20052;-90